createdAt,value
2023-03-20T00:00:48.306Z,6.4
2023-03-20T00:03:18.345Z,8.43
2023-03-20T00:05:48.351Z,7.09
2023-03-20T00:08:18.386Z,6.71
2023-03-20T00:10:48.452Z,6.81
2023-03-20T00:13:18.425Z,7.36
2023-03-20T00:20:48.506Z,6.26
2023-03-20T00:23:18.524Z,6.32
2023-03-20T00:25:48.535Z,7.57
2023-03-20T00:28:18.567Z,6.77
2023-03-20T00:30:48.587Z,6.77
2023-03-20T00:33:18.629Z,11.27
2023-03-20T00:35:48.679Z,8.94
2023-03-20T00:38:18.651Z,7.32
2023-03-20T00:40:48.687Z,7.71
2023-03-20T00:43:18.727Z,7.42
2023-03-20T00:45:48.725Z,9.01
2023-03-20T00:48:18.776Z,12.11
2023-03-20T00:50:48.801Z,9.75
2023-03-20T00:55:48.824Z,7.34
2023-03-20T00:58:18.887Z,7.39
2023-03-20T01:00:48.911Z,8.64
2023-03-20T01:13:18.989Z,8.58
2023-03-20T01:15:49.006Z,9.05
2023-03-20T01:18:19.041Z,9.51
2023-03-20T01:20:49.064Z,8.09
2023-03-20T01:35:49.279Z,8.49
2023-03-20T01:38:19.231Z,9.07
2023-03-20T01:50:56.728Z,13.57
2023-03-20T01:55:56.723Z,13.44
2023-03-20T01:58:26.754Z,10.6
2023-03-20T02:00:56.853Z,11.11
2023-03-20T02:03:26.784Z,12.49
2023-03-20T02:10:56.851Z,12.64
2023-03-20T02:13:26.874Z,11.94
2023-03-20T02:15:56.896Z,12.7
2023-03-20T02:20:56.966Z,15.55
2023-03-20T02:23:26.976Z,14.1
2023-03-20T02:28:27.000Z,10.8
2023-03-20T02:30:57.101Z,11.32
2023-03-20T02:33:27.055Z,13.93
2023-03-20T02:35:57.111Z,10.51
2023-03-20T02:40:57.141Z,9.78
2023-03-20T02:43:27.162Z,11.41
2023-03-20T02:45:57.206Z,10.01
2023-03-20T02:48:27.200Z,8.85
2023-03-20T02:55:57.305Z,7.72
2023-03-20T02:58:27.313Z,7.69
2023-03-20T03:05:57.365Z,8.24
2023-03-20T03:08:27.395Z,7.58
2023-03-20T03:10:57.421Z,6.68
2023-03-20T03:13:27.440Z,8.43
2023-03-20T03:20:57.501Z,9.14
2023-03-20T03:23:27.542Z,7.63
2023-03-20T03:25:57.570Z,6.33
2023-03-20T03:28:27.584Z,8.97
2023-03-20T03:33:27.626Z,9.41
2023-03-20T03:35:57.708Z,8.92
2023-03-20T03:38:27.660Z,7.52
2023-03-20T03:43:27.721Z,8.55
2023-03-20T03:45:57.757Z,6.9
2023-03-20T04:00:57.889Z,6.11
2023-03-20T04:03:27.926Z,5.44
2023-03-20T04:05:57.942Z,4.37
2023-03-20T04:10:57.987Z,5.18
2023-03-20T04:13:28.004Z,5.03
2023-03-20T04:15:58.099Z,5.05
2023-03-20T04:18:28.059Z,5.81
2023-03-20T04:20:58.073Z,4.43
2023-03-20T04:23:28.193Z,5.98
2023-03-20T04:30:58.171Z,5.78
2023-03-20T04:35:58.264Z,6.15
2023-03-20T04:38:28.274Z,5.93
2023-03-20T04:40:58.256Z,5.96
2023-03-20T04:43:28.292Z,11.12
2023-03-20T04:53:28.379Z,9.24
2023-03-20T04:56:01.388Z,7.25
2023-03-20T05:08:28.528Z,10.3
2023-03-20T05:10:58.567Z,7.67
2023-03-20T05:15:58.614Z,8.15
2023-03-20T05:18:28.611Z,7.57
2023-03-20T05:20:58.668Z,6.55
2023-03-20T05:23:28.664Z,6.41
2023-03-20T05:28:28.723Z,6.89
2023-03-20T05:30:58.774Z,9.73
2023-03-20T05:33:28.763Z,10.22
2023-03-20T05:38:28.814Z,10.56
2023-03-20T05:40:58.834Z,10.92
2023-03-20T05:43:28.859Z,12.88
2023-03-20T05:45:58.885Z,14.21
2023-03-20T05:55:58.964Z,10.9
2023-03-20T06:00:59.026Z,9.8
2023-03-20T06:08:29.083Z,13.18
2023-03-20T06:10:59.115Z,12.11
2023-03-20T06:20:59.212Z,12.57
2023-03-20T06:23:29.234Z,16.07
2023-03-20T06:30:59.344Z,12.16
2023-03-20T06:33:29.323Z,15
2023-03-20T06:38:29.366Z,10.54
2023-03-20T06:45:59.432Z,13.19
2023-03-20T06:50:59.500Z,14.35
2023-03-20T06:53:29.508Z,11.91
2023-03-20T06:55:59.530Z,9.72
2023-03-20T07:00:59.580Z,12.26
2023-03-20T07:05:59.635Z,10.34
2023-03-20T07:08:29.657Z,13
2023-03-20T07:16:04.575Z,9.7
2023-03-20T07:20:59.775Z,9.02
2023-03-20T07:25:59.816Z,8.1
2023-03-20T07:28:29.836Z,10.18
2023-03-20T07:36:00.030Z,9.95
2023-03-20T07:43:29.989Z,8.29
2023-03-20T07:46:00.061Z,9.21
2023-03-20T07:48:30.068Z,8.18
2023-03-20T07:56:00.143Z,11.3
2023-03-20T08:03:30.339Z,8.03
2023-03-20T08:06:00.188Z,8.34
2023-03-20T08:08:30.210Z,9.98
2023-03-20T08:11:00.259Z,9.97
2023-03-20T08:13:30.265Z,9.8
2023-03-20T08:16:00.300Z,8.13
2023-03-20T08:18:30.319Z,8.64
2023-03-20T08:26:00.374Z,9.9
2023-03-20T08:28:46.170Z,7.94
2023-03-20T08:31:00.513Z,8.33
2023-03-20T08:33:30.468Z,7.71
2023-03-20T08:38:30.508Z,8.96
2023-03-20T08:43:30.583Z,10.58
2023-03-20T08:46:00.623Z,8.49
2023-03-20T08:48:30.614Z,10.1
2023-03-20T08:53:30.646Z,8.87
2023-03-20T08:58:30.752Z,7.61
2023-03-20T09:03:30.723Z,7.45
2023-03-20T09:06:00.768Z,10.35
2023-03-20T09:16:00.930Z,9.71
2023-03-20T09:21:00.886Z,7.31
2023-03-20T09:23:30.918Z,8.29
2023-03-20T09:28:38.019Z,6.84
2023-03-20T09:36:01.120Z,5.31
2023-03-20T09:43:31.108Z,4.35
2023-03-20T09:51:01.173Z,8.62
2023-03-20T09:53:31.220Z,8.03
2023-03-20T09:58:31.249Z,7.06
2023-03-20T10:01:01.281Z,6.19
2023-03-20T10:03:31.297Z,7.15
2023-03-20T10:06:01.323Z,7.2
2023-03-20T10:11:01.355Z,7.36
2023-03-20T10:16:01.464Z,5.21
2023-03-20T10:23:31.486Z,3.92
2023-03-20T10:28:31.544Z,3.5
2023-03-20T10:33:31.571Z,4.15
2023-03-20T10:36:01.634Z,2.85
2023-03-20T10:38:31.651Z,8.14
2023-03-20T10:41:01.628Z,5.97
2023-03-20T10:43:31.678Z,5.34
2023-03-20T10:51:01.735Z,4.96
2023-03-20T10:53:31.768Z,8.12
2023-03-20T10:56:01.793Z,7.23
2023-03-20T11:01:01.872Z,7.42
2023-03-20T11:06:09.201Z,3.61
2023-03-20T11:08:31.919Z,3.65
2023-03-20T11:11:01.920Z,4.01
2023-03-20T11:16:01.986Z,7.66
2023-03-20T11:23:32.051Z,3.91
2023-03-20T11:26:02.086Z,5.57
2023-03-20T11:31:04.872Z,3.31
2023-03-20T11:33:32.160Z,4.19
2023-03-20T11:36:02.231Z,3.69
2023-03-20T11:43:32.237Z,3.62
2023-03-20T11:46:02.343Z,4.84
2023-03-20T11:51:02.315Z,4.18
2023-03-20T11:53:32.625Z,4.77
2023-03-20T11:56:02.361Z,3.57
2023-03-20T12:03:32.537Z,2.74
2023-03-20T12:06:02.462Z,2.65
2023-03-20T12:08:32.491Z,3.73
2023-03-20T12:16:02.632Z,4.6
2023-03-20T12:18:32.741Z,5.64
2023-03-20T12:21:02.620Z,6
2023-03-20T12:28:32.666Z,8.07
2023-03-20T12:31:02.723Z,6.26
2023-03-20T12:33:32.705Z,5.29
2023-03-20T12:41:02.784Z,9.67
2023-03-20T12:43:32.789Z,6.65
2023-03-20T12:46:02.830Z,6.35
2023-03-20T12:48:32.848Z,5.38
2023-03-20T12:53:32.903Z,5.18
2023-03-20T12:56:02.940Z,11.93
2023-03-20T12:58:32.932Z,7.93
2023-03-20T13:03:32.999Z,10.49
2023-03-20T13:06:03.045Z,7.16
2023-03-20T13:08:33.041Z,5.79
2023-03-20T13:16:03.165Z,9.02
2023-03-20T13:18:33.123Z,7.04
2023-03-20T13:21:03.156Z,6.49
2023-03-20T13:26:03.218Z,11.63
2023-03-20T13:28:33.242Z,8.47
2023-03-20T13:31:03.293Z,7.28
2023-03-20T13:33:33.270Z,5.86
2023-03-20T13:36:03.345Z,7.83
2023-03-20T13:38:33.333Z,6.02
2023-03-20T13:41:03.351Z,5.49
2023-03-20T13:43:33.412Z,6.43
2023-03-20T13:46:03.378Z,11.31
2023-03-20T13:51:03.406Z,11.76
2023-03-20T13:53:33.457Z,10.15
2023-03-20T13:56:03.464Z,8.91
2023-03-20T14:01:03.611Z,5.77
2023-03-20T14:03:33.575Z,6.14
2023-03-20T14:06:03.590Z,6.73
2023-03-20T14:08:33.633Z,7.16
2023-03-20T14:11:03.598Z,10.19
2023-03-20T14:13:33.630Z,10.81
2023-03-20T14:16:03.666Z,9.79
2023-03-20T14:18:33.677Z,8.83
2023-03-20T14:23:33.730Z,10.94
2023-03-20T14:26:03.750Z,8.34
2023-03-20T14:33:33.831Z,8.73
2023-03-20T14:36:03.851Z,9.22
2023-03-20T14:43:33.908Z,9.01
2023-03-20T14:46:03.919Z,7.6
2023-03-20T14:48:33.956Z,8.38
2023-03-20T14:53:34.023Z,11.18
2023-03-20T14:56:04.035Z,7.88
2023-03-20T14:58:34.056Z,10.19
2023-03-20T15:01:04.133Z,10.44
2023-03-20T15:03:34.268Z,8.85
2023-03-20T15:06:04.155Z,7.98
2023-03-20T15:08:34.136Z,12.05
2023-03-20T15:11:04.158Z,11.67
2023-03-20T15:16:05.305Z,9.41
2023-03-20T15:18:34.261Z,8.03
2023-03-20T15:23:34.301Z,11.84
2023-03-20T15:26:04.313Z,12.03
2023-03-20T15:31:04.360Z,8.75
2023-03-20T15:33:34.394Z,8.61
2023-03-20T15:36:06.759Z,8.27
2023-03-20T15:38:34.474Z,6.59
2023-03-20T15:41:04.448Z,7.89
2023-03-20T15:43:34.490Z,8.99
2023-03-20T15:46:17.826Z,8.13
2023-03-20T15:51:04.560Z,8.63
2023-03-20T15:53:34.593Z,8.03
2023-03-20T15:56:17.194Z,6.49
2023-03-20T15:58:34.626Z,10.35
2023-03-20T16:01:04.666Z,8.36
2023-03-20T16:03:34.670Z,7.51
2023-03-20T16:06:04.694Z,8.37
2023-03-20T16:11:04.736Z,6.83
2023-03-20T16:13:35.804Z,7.91
2023-03-20T16:18:34.829Z,8.36
2023-03-20T16:21:04.855Z,6.99
2023-03-20T16:23:34.862Z,8.3
2023-03-20T16:26:04.880Z,6.84
2023-03-20T16:28:34.896Z,6.36
2023-03-20T16:31:07.500Z,6.74
2023-03-20T16:36:05.010Z,9.74
2023-03-20T16:38:35.004Z,11.2
2023-03-20T16:41:05.034Z,8.33
2023-03-20T16:43:35.034Z,6.92
2023-03-20T16:51:05.144Z,6
2023-03-20T16:56:05.179Z,6.32
2023-03-20T16:58:35.191Z,6.7
2023-03-20T17:03:35.234Z,6.7
2023-03-20T17:06:05.273Z,5.96
2023-03-20T17:11:05.321Z,6.8
2023-03-20T17:13:35.328Z,6.8
2023-03-20T17:16:05.390Z,6.66
2023-03-20T17:21:05.397Z,8.59
2023-03-20T17:23:35.431Z,9.5
2023-03-20T17:26:05.465Z,8.08
2023-03-20T17:28:35.475Z,7.82
2023-03-20T17:31:05.527Z,9.52
2023-03-20T17:33:35.601Z,8.42
2023-03-20T17:36:05.636Z,10.17
2023-03-20T17:43:35.609Z,10.29
2023-03-20T17:46:05.859Z,9.28
2023-03-20T17:56:05.746Z,12.81
2023-03-20T17:58:35.758Z,10.35
2023-03-20T18:01:06.022Z,10.73
2023-03-20T18:03:35.799Z,9.4
2023-03-20T18:06:05.818Z,11.09
2023-03-20T18:08:35.847Z,9.59
2023-03-20T18:11:05.884Z,11.32
2023-03-20T18:13:35.895Z,12.32
2023-03-20T18:16:05.998Z,14.89
2023-03-20T18:18:35.941Z,16.7
2023-03-20T18:23:35.986Z,15.33
2023-03-20T18:26:06.002Z,14.07
2023-03-20T18:28:36.021Z,13.84
2023-03-20T18:33:36.064Z,12.64
2023-03-20T18:36:06.133Z,14.21
2023-03-20T18:38:36.114Z,13.77
2023-03-20T18:43:36.186Z,13.54
2023-03-20T18:48:36.231Z,15.29
2023-03-20T18:51:06.228Z,14.85
2023-03-20T18:56:06.296Z,16.43
2023-03-20T18:58:36.332Z,14.67
2023-03-20T19:03:36.481Z,20.91
2023-03-20T19:08:36.423Z,17.02
2023-03-20T19:11:06.466Z,14.49
2023-03-20T19:13:36.485Z,13.87
2023-03-20T19:21:06.525Z,12.99
2023-03-20T19:28:40.879Z,18.12
2023-03-20T19:31:06.753Z,16.7
2023-03-20T19:33:36.725Z,14.75
2023-03-20T19:36:06.901Z,16.47
2023-03-20T19:38:36.693Z,18.57
2023-03-20T19:41:08.694Z,16.08
2023-03-20T19:46:06.784Z,13.13
2023-03-20T19:48:50.074Z,15.97
2023-03-20T19:51:06.830Z,17.72
2023-03-20T19:56:06.860Z,16
2023-03-20T19:58:36.892Z,17.78
2023-03-20T20:01:14.741Z,19.08
2023-03-20T20:06:06.969Z,16.13
2023-03-20T20:08:46.926Z,16.78
2023-03-20T20:11:07.037Z,16.54
2023-03-20T20:13:47.055Z,15.74
2023-03-20T20:16:07.058Z,16.69
2023-03-20T20:18:37.071Z,18.09
2023-03-20T20:22:09.839Z,17.13
2023-03-20T20:26:07.578Z,19.37
2023-03-20T20:28:37.158Z,19.79
2023-03-20T20:31:07.183Z,17.36
2023-03-20T20:33:37.222Z,17.46
2023-03-20T20:36:49.499Z,18.96
2023-03-20T20:38:50.058Z,18.15
2023-03-20T20:41:07.273Z,15.78
2023-03-20T20:44:08.235Z,18.41
2023-03-20T20:46:07.405Z,18.9
2023-03-20T20:48:37.334Z,25.19
2023-03-20T20:51:07.370Z,19.64
2023-03-20T20:53:37.390Z,19.33
2023-03-20T20:56:07.426Z,19.08
2023-03-20T20:58:37.430Z,17.75
2023-03-20T21:01:07.555Z,15.17
2023-03-20T21:03:37.477Z,14.55
2023-03-20T21:06:07.528Z,14.97
2023-03-20T21:08:37.527Z,13.85
2023-03-20T21:11:07.625Z,13.4
2023-03-20T21:13:37.590Z,16.63
2023-03-20T21:16:07.621Z,18.04
2023-03-20T21:18:37.639Z,16.1
2023-03-20T21:21:07.664Z,15.35
2023-03-20T21:23:37.674Z,14.85
2023-03-20T21:26:07.713Z,13.26
2023-03-20T21:28:37.723Z,13.18
2023-03-20T21:31:24.548Z,14.48
2023-03-20T21:33:37.806Z,14.67
2023-03-20T21:36:07.880Z,15.72
2023-03-20T21:39:08.434Z,16.09
2023-03-20T21:41:07.859Z,13.75
2023-03-20T21:43:37.868Z,12.11
2023-03-20T21:54:46.076Z,11.65
2023-03-20T21:56:59.895Z,17.32
2023-03-20T22:01:49.052Z,14.55
2023-03-20T22:07:13.255Z,15.12
2023-03-20T22:11:56.702Z,14.89
2023-03-20T22:14:40.688Z,11.92
2023-03-20T22:19:56.247Z,14.81
2023-03-20T22:21:58.982Z,13.81
2023-03-20T22:24:29.943Z,15.48
2023-03-20T22:27:01.659Z,14.66
2023-03-20T22:34:25.887Z,16.61
2023-03-20T22:37:11.124Z,15.32
2023-03-20T22:44:33.931Z,17.22
2023-03-20T22:46:36.046Z,16.69
2023-03-20T22:48:38.488Z,16.12
2023-03-20T22:51:08.532Z,16.24
2023-03-20T22:53:38.510Z,16.21
2023-03-20T22:56:08.560Z,16.49
2023-03-20T22:58:38.554Z,16.38
2023-03-20T23:03:41.775Z,15.13
2023-03-20T23:06:08.638Z,15.47
2023-03-20T23:08:48.022Z,15.42
2023-03-20T23:11:08.686Z,15.27
2023-03-20T23:13:38.708Z,14.84
2023-03-20T23:16:08.764Z,18.15
2023-03-20T23:18:38.792Z,16.83
2023-03-20T23:21:08.772Z,18.91
2023-03-20T23:23:38.798Z,17.07
2023-03-20T23:26:08.859Z,16.38
2023-03-20T23:28:38.953Z,17.43
2023-03-20T23:31:10.798Z,18.26
2023-03-20T23:33:38.907Z,16.93
2023-03-20T23:36:21.815Z,13.59
2023-03-20T23:38:38.974Z,18.77
2023-03-20T23:41:08.997Z,15.9
2023-03-20T23:43:39.010Z,16.78
2023-03-20T23:46:09.130Z,15.76
2023-03-20T23:48:39.047Z,15.82
2023-03-20T23:51:09.086Z,15.31
2023-03-20T23:53:39.104Z,12.1
2023-03-20T23:56:09.099Z,12.68
2023-03-20T23:58:41.935Z,17.72
